Time;durP1;ratioP1;P1;durP2;ratioP2;P2;SDS_P1;SDS_P2;PMS_P1;PMS_P2;Temp;Humidity;BMP_temperature;BMP_pressure;BME280_temperature;BME280_humidity;BME280_pressure;Samples;Min_cycle;Max_cycle;Signal;HPM_P1;HPM_P2
2023/10/12 00:02:09;;;;;;;6.80;3.83;;;;;;;11.16;100.00;96518.19;4989345;28;101928;-78
2023/10/12 00:04:43;;;;;;;5.73;3.93;;;;;;;11.20;100.00;96511.31;4989303;28;105430;-78
2023/10/12 00:07:15;;;;;;;6.20;3.60;;;;;;;11.17;100.00;96519.78;4990022;28;101867;-78
2023/10/12 00:10:02;;;;;;;7.00;4.20;;;;;;;11.02;100.00;96524.16;4992356;28;101979;-78
2023/10/12 00:12:35;;;;;;;7.27;3.93;;;;;;;11.06;100.00;96512.75;4988378;28;104377;-78
2023/10/12 00:15:21;;;;;;;5.80;4.07;;;;;;;11.14;100.00;96516.84;4988570;28;101909;-78
2023/10/12 00:17:53;;;;;;;10.03;4.53;;;;;;;11.18;100.00;96520.63;4989012;28;104536;-80
2023/10/12 00:20:36;;;;;;;4.70;3.77;;;;;;;11.25;100.00;96513.22;4987775;28;105578;-79
2023/10/12 00:23:10;;;;;;;9.13;4.20;;;;;;;11.15;100.00;96513.94;4988735;28;101942;-79
2023/10/12 00:25:54;;;;;;;5.67;3.67;;;;;;;11.13;100.00;96520.56;4988792;28;105425;-79
2023/10/12 00:28:23;;;;;;;10.20;4.00;;;;;;;11.10;100.00;96515.72;4989628;28;102784;-79
2023/10/12 00:31:12;;;;;;;7.63;4.00;;;;;;;10.89;100.00;96524.53;4988756;28;102076;-79
2023/10/12 00:33:49;;;;;;;9.20;4.13;;;;;;;10.93;100.00;96529.13;4991606;28;105980;-79
2023/10/12 00:36:26;;;;;;;6.10;3.90;;;;;;;11.05;100.00;96528.97;4988481;28;101989;-79
2023/10/12 00:38:57;;;;;;;4.97;3.57;;;;;;;11.01;100.00;96522.56;4988699;28;105471;-79
2023/10/12 00:41:35;;;;;;;5.07;3.80;;;;;;;10.93;100.00;96525.66;4987471;28;105504;-79
2023/10/12 00:44:29;;;;;;;6.93;3.93;;;;;;;10.98;100.00;96518.53;4988639;28;102058;-79
2023/10/12 00:47:12;;;;;;;6.13;4.07;;;;;;;10.91;100.00;96523.22;4990162;28;102634;-79
2023/10/12 00:49:50;;;;;;;5.90;4.40;;;;;;;10.95;100.00;96523.56;4987990;28;105118;-80
2023/10/12 00:52:45;;;;;;;8.93;3.93;;;;;;;10.88;100.00;96521.09;4988644;28;101842;-79
2023/10/12 00:55:21;;;;;;;7.67;3.60;;;;;;;10.89;100.00;96524.53;4988290;28;105032;-79
2023/10/12 00:57:53;;;;;;;10.00;4.70;;;;;;;10.88;100.00;96522.91;4991362;28;104471;-79
2023/10/12 01:00:35;;;;;;;5.97;3.80;;;;;;;10.93;100.00;96520.31;4990077;28;102670;-79
2023/10/12 01:03:27;;;;;;;8.00;4.20;;;;;;;10.77;100.00;96515.88;4987890;28;105446;-79
2023/10/12 01:08:50;;;;;;;5.13;4.00;;;;;;;10.71;100.00;96523.00;4988013;28;103770;-78
2023/10/12 01:11:26;;;;;;;9.60;4.63;;;;;;;10.68;100.00;96522.69;4987799;28;104332;-78
2023/10/12 01:14:09;;;;;;;8.57;3.80;;;;;;;10.72;100.00;96527.28;4988315;28;101853;-77
2023/10/12 01:16:46;;;;;;;7.40;3.93;;;;;;;10.79;100.00;96503.94;4989350;28;102529;-78
2023/10/12 01:22:12;;;;;;;5.73;3.97;;;;;;;10.73;100.00;96520.91;4990768;28;102034;-78
2023/10/12 01:24:57;;;;;;;6.03;4.10;;;;;;;10.65;100.00;96516.03;4987508;28;104555;-78
2023/10/12 01:27:27;;;;;;;9.73;4.40;;;;;;;10.64;100.00;96521.59;4988212;28;101718;-78
2023/10/12 01:30:11;;;;;;;6.73;4.10;;;;;;;10.67;100.00;96515.75;4988075;28;104661;-76
2023/10/12 01:32:40;;;;;;;6.27;4.00;;;;;;;10.64;100.00;96516.25;4987665;28;106377;-78
2023/10/12 01:35:12;;;;;;;8.57;4.17;;;;;;;10.64;100.00;96503.75;4988100;28;102085;-78
2023/10/12 01:37:49;;;;;;;7.13;3.90;;;;;;;10.54;100.00;96505.50;4989540;28;102645;-78
2023/10/12 01:40:21;;;;;;;7.70;3.90;;;;;;;10.31;100.00;96508.38;4987493;28;105409;-78
2023/10/12 01:42:50;;;;;;;5.67;4.30;;;;;;;10.33;100.00;96514.25;4992539;28;101872;-76
2023/10/12 01:45:33;;;;;;;6.07;3.87;;;;;;;10.33;100.00;96514.25;4987282;28;106294;-76
2023/10/12 01:48:07;;;;;;;7.07;3.80;;;;;;;10.39;100.00;96510.59;4988064;28;101880;-76
2023/10/12 01:50:37;;;;;;;5.87;3.97;;;;;;;10.45;100.00;96504.31;4987969;28;104041;-76
2023/10/12 01:53:17;;;;;;;6.90;4.60;;;;;;;10.45;100.00;96509.63;4989093;28;105384;-76
2023/10/12 01:55:44;;;;;;;6.23;3.93;;;;;;;10.38;100.00;96512.47;4992835;28;101751;-76
2023/10/12 01:58:13;;;;;;;7.00;4.23;;;;;;;10.43;100.00;96509.88;4991276;28;105119;-76
2023/10/12 02:00:42;;;;;;;7.07;3.90;;;;;;;10.43;100.00;96514.38;4990605;28;105330;-76
2023/10/12 02:03:17;;;;;;;10.03;4.30;;;;;;;10.45;100.00;96512.28;4991163;28;101903;-76
2023/10/12 02:05:56;;;;;;;7.77;4.37;;;;;;;10.31;100.00;96511.03;4995279;28;102812;-76
2023/10/12 02:08:32;;;;;;;6.40;4.00;;;;;;;10.28;100.00;96509.69;4990856;28;102185;-76
2023/10/12 02:11:06;;;;;;;7.20;4.50;;;;;;;10.30;100.00;96514.75;4991085;28;104277;-76
2023/10/12 02:13:36;;;;;;;5.37;3.93;;;;;;;10.40;100.00;96510.38;4990346;28;105095;-77
2023/10/12 02:16:07;;;;;;;7.93;4.23;;;;;;;10.47;100.00;96502.22;4990581;28;101881;-77
2023/10/12 02:18:36;;;;;;;8.00;4.07;;;;;;;10.47;100.00;96508.31;4990640;28;105957;-77
2023/10/12 02:21:11;;;;;;;6.10;4.43;;;;;;;10.22;100.00;96501.88;4991408;28;103261;-79
2023/10/12 02:23:54;;;;;;;8.40;3.70;;;;;;;10.26;100.00;96506.44;4990759;28;101904;-79
2023/10/12 02:26:31;;;;;;;6.50;3.60;;;;;;;10.08;100.00;96496.09;4974175;28;106673;-79
2023/10/12 02:29:11;;;;;;;5.47;3.57;;;;;;;10.17;100.00;96504.47;4993498;28;104130;-79
2023/10/12 02:31:39;;;;;;;5.03;3.50;;;;;;;10.08;100.00;96500.63;4990753;28;105190;-79
2023/10/12 02:34:12;;;;;;;5.23;3.90;;;;;;;10.17;100.00;96504.47;4989856;28;104964;-79
2023/10/12 02:36:39;;;;;;;10.13;4.33;;;;;;;10.20;100.00;96503.97;4990704;28;102084;-79
2023/10/12 02:39:15;;;;;;;5.73;3.87;;;;;;;10.15;100.00;96506.56;4990518;28;105175;-79
2023/10/12 02:41:49;;;;;;;6.97;3.77;;;;;;;10.09;100.00;96507.53;4989992;28;105030;-79
2023/10/12 02:44:19;;;;;;;9.43;4.50;;;;;;;10.13;100.00;96498.00;4990452;28;101890;-79
2023/10/12 02:47:00;;;;;;;6.50;4.80;;;;;;;10.04;100.00;96515.44;4992008;28;102946;-79
2023/10/12 02:49:35;;;;;;;6.13;4.40;;;;;;;10.09;100.00;96512.84;4991057;28;102955;-79
2023/10/12 02:52:06;;;;;;;6.47;4.60;;;;;;;10.19;100.00;96507.69;4993810;28;101766;-79
2023/10/12 02:54:38;;;;;;;7.03;4.33;;;;;;;10.15;100.00;96511.88;4989683;28;105475;-78
2023/10/12 02:57:05;;;;;;;6.67;4.33;;;;;;;10.18;100.00;96512.19;4990330;28;101965;-78
2023/10/12 02:59:37;;;;;;;7.47;4.00;;;;;;;10.22;100.00;96512.50;4990059;28;105088;-78
2023/10/12 03:02:18;;;;;;;6.70;4.93;;;;;;;10.16;100.00;96508.16;4989740;28;105252;-78
2023/10/12 03:04:45;;;;;;;4.67;4.20;;;;;;;10.21;100.00;96510.91;4989692;28;101876;-78
2023/10/12 03:07:22;;;;;;;8.47;4.57;;;;;;;10.13;100.00;96519.28;4990195;28;105496;-78
2023/10/12 03:09:55;;;;;;;7.00;3.80;;;;;;;9.86;100.00;96508.50;4989538;28;105622;-78
2023/10/12 03:12:23;;;;;;;7.40;4.03;;;;;;;9.91;100.00;96502.44;4989969;28;101816;-78
2023/10/12 03:14:51;;;;;;;10.23;4.40;;;;;;;9.96;100.00;96505.19;4992314;28;105401;-78
2023/10/12 03:17:19;;;;;;;8.17;4.63;;;;;;;9.80;100.00;96514.78;4989973;28;101815;-78
2023/10/12 03:19:55;;;;;;;7.57;4.13;;;;;;;9.84;100.00;96509.78;4989524;28;104923;-77
2023/10/12 03:22:31;;;;;;;10.60;4.87;;;;;;;9.92;100.00;96515.50;4989309;28;105508;-77
2023/10/12 03:25:13;;;;;;;6.30;4.47;;;;;;;9.85;100.00;96517.50;4989856;28;101774;-77
2023/10/12 03:27:43;;;;;;;7.03;3.87;;;;;;;9.96;100.00;96515.81;4989877;28;105526;-77
2023/10/12 03:30:17;;;;;;;7.07;4.23;;;;;;;9.95;100.00;96517.69;4989131;28;104080;-77
2023/10/12 03:32:45;;;;;;;4.47;3.70;;;;;;;9.97;100.00;96515.56;4989721;28;101861;-77
2023/10/12 03:35:15;;;;;;;5.50;4.00;;;;;;;9.75;100.00;96512.03;4989471;28;105060;-77
2023/10/12 03:37:47;;;;;;;7.27;4.57;;;;;;;9.77;100.00;96514.47;4992247;28;101881;-77
2023/10/12 03:43:08;;;;;;;6.67;4.10;;;;;;;9.84;100.00;96513.25;4989005;28;105413;-77
2023/10/12 03:45:48;;;;;;;7.93;3.97;;;;;;;9.73;100.00;96519.47;4989481;28;101849;-78
2023/10/12 03:48:24;;;;;;;6.90;4.30;;;;;;;9.76;100.00;96513.63;4989504;28;104876;-78
2023/10/12 03:50:58;;;;;;;5.73;4.03;;;;;;;9.59;100.00;96526.13;4990473;28;102733;-78
2023/10/12 03:53:31;;;;;;;6.63;4.23;;;;;;;9.45;100.00;96514.22;4989399;28;101875;-78
2023/10/12 03:56:01;;;;;;;6.00;4.30;;;;;;;9.45;100.00;96513.41;4990792;28;102908;-76
2023/10/12 03:58:28;;;;;;;7.47;4.20;;;;;;;9.42;100.00;96519.16;4992285;28;105782;-76
2023/10/12 04:01:10;;;;;;;10.40;4.83;;;;;;;9.48;100.00;96511.06;4989860;28;104946;-76
2023/10/12 04:03:39;;;;;;;6.47;3.87;;;;;;;9.60;100.00;96521.63;4989543;28;105674;-77
2023/10/12 04:06:15;;;;;;;12.27;4.47;;;;;;;9.66;100.00;96497.53;4991408;28;101916;-77
2023/10/12 04:08:51;;;;;;;9.53;4.37;;;;;;;9.57;100.00;96511.47;4991000;28;103784;-77
2023/10/12 04:14:43;;;;;;;7.17;5.07;;;;;;;9.53;100.00;96511.16;4989099;28;102044;-77
2023/10/12 04:17:08;;;;;;;7.97;5.00;;;;;;;9.61;100.00;96504.63;5009604;28;104887;-77
2023/10/12 04:19:37;;;;;;;6.93;4.40;;;;;;;9.57;100.00;96506.97;5010395;28;103184;-78
2023/10/12 04:22:16;;;;;;;6.10;4.63;;;;;;;9.50;100.00;96509.00;5013179;28;102026;-84
2023/10/12 04:24:45;;;;;;;6.03;4.20;;;;;;;9.52;100.00;96506.06;5026029;28;105091;-78
2023/10/12 04:27:38;;;;;;;7.23;4.53;;;;;;;9.49;100.00;96510.00;5011102;28;101651;-78
2023/10/12 04:30:20;;;;;;;6.53;4.10;;;;;;;9.51;100.00;96507.13;5009842;28;105687;-78
2023/10/12 04:32:57;;;;;;;8.70;4.27;;;;;;;9.53;100.00;96507.69;5010717;28;103173;-77
2023/10/12 04:35:43;;;;;;;8.43;4.40;;;;;;;9.53;100.00;96511.16;5009671;28;101771;-78
2023/10/12 04:38:23;;;;;;;6.40;4.50;;;;;;;9.56;100.00;96509.88;5011132;28;102965;-78
2023/10/12 04:43:34;;;;;;;6.93;4.30;;;;;;;9.56;100.00;96501.91;5007734;28;101811;-78
2023/10/12 04:46:26;;;;;;;7.77;4.47;;;;;;;9.44;100.00;96503.81;5011458;28;104490;-78
2023/10/12 04:49:12;;;;;;;10.60;4.37;;;;;;;9.38;100.00;96504.78;5010179;28;101826;-79
2023/10/12 04:51:40;;;;;;;10.43;4.20;;;;;;;9.31;100.00;96491.66;5010059;28;102597;-78
2023/10/12 04:54:16;;;;;;;6.67;4.13;;;;;;;9.29;100.00;96503.56;5007734;28;105547;-78
2023/10/12 04:56:56;;;;;;;6.80;4.80;;;;;;;9.28;100.00;96502.75;5008585;28;101842;-78
2023/10/12 04:59:29;;;;;;;6.43;4.50;;;;;;;9.39;100.00;96498.44;5008422;28;105482;-78
2023/10/12 05:05:54;;;;;;;9.03;4.67;;;;;;;9.43;100.00;96505.66;5010092;28;101698;-78
2023/10/12 05:08:05;;;;;;;7.67;4.40;;;;;;;9.40;100.00;96490.25;5009362;28;102538;-78
2023/10/12 05:10:42;;;;;;;9.73;5.70;;;;;;;9.34;100.00;96496.50;5011179;28;104190;-78
2023/10/12 05:13:10;;;;;;;7.67;5.20;;;;;;;9.36;100.00;96485.63;5008318;28;104871;-78
2023/10/12 05:15:42;;;;;;;12.00;5.80;;;;;;;9.28;100.00;96497.44;5008160;28;102696;-78
2023/10/12 05:18:09;;;;;;;11.67;5.50;;;;;;;9.27;100.00;96497.69;4991467;28;101853;-78
2023/10/12 05:20:41;;;;;;;10.03;5.63;;;;;;;9.38;100.00;96499.47;5007854;28;105631;-78
2023/10/12 05:23:09;;;;;;;9.00;4.80;;;;;;;9.46;100.00;96485.81;5007567;28;105531;-78
2023/10/12 05:25:48;;;;;;;13.83;5.50;;;;;;;9.37;100.00;96501.31;5008048;28;101864;-78
2023/10/12 05:28:15;;;;;;;9.30;6.47;;;;;;;9.47;100.00;96512.13;5013076;28;102670;-78
2023/10/12 05:30:48;;;;;;;6.90;4.60;;;;;;;9.40;100.00;96513.31;5010812;28;105268;-78
2023/10/12 05:33:37;;;;;;;7.63;4.33;;;;;;;9.35;100.00;96510.56;5014989;28;101827;-76
2023/10/12 05:36:08;;;;;;;5.17;4.57;;;;;;;9.37;100.00;96508.50;5011093;28;104086;-76
2023/10/12 05:38:36;;;;;;;7.60;4.70;;;;;;;9.39;100.00;96511.69;5011361;28;102395;-76
2023/10/12 05:41:08;;;;;;;11.13;4.80;;;;;;;9.53;100.00;96520.94;5011226;28;104087;-76
2023/10/12 05:43:37;;;;;;;6.97;4.53;;;;;;;9.61;100.00;96520.56;5010808;28;105764;-76
2023/10/12 05:46:10;;;;;;;9.73;5.20;;;;;;;9.56;100.00;96536.41;5011107;28;102004;-76
2023/10/12 05:48:41;;;;;;;10.07;4.97;;;;;;;9.73;100.00;96530.06;5011373;28;103882;-76
2023/10/12 05:51:10;;;;;;;11.30;5.07;;;;;;;9.81;100.00;96532.31;5010778;28;105610;-76
2023/10/12 05:53:38;;;;;;;9.80;5.10;;;;;;;9.94;100.00;96539.97;5015992;28;102203;-76
2023/10/12 05:56:06;;;;;;;9.63;4.80;;;;;;;10.09;100.00;96544.75;5010426;28;102925;-76
2023/10/12 05:58:34;;;;;;;8.33;5.07;;;;;;;10.02;100.00;96541.41;5010982;28;101930;-76
2023/10/12 06:01:08;;;;;;;6.50;4.93;;;;;;;10.16;100.00;96548.84;5011004;28;104911;-76
2023/10/12 06:03:39;;;;;;;7.60;4.90;;;;;;;10.25;100.00;96551.91;5010491;28;105429;-76
2023/10/12 06:06:09;;;;;;;8.47;4.37;;;;;;;10.37;100.00;96553.38;5010824;28;102194;-76
2023/10/12 06:08:37;;;;;;;13.90;5.70;;;;;;;10.46;100.00;96556.44;5010903;28;106392;-76
2023/10/12 06:11:07;;;;;;;10.37;4.90;;;;;;;10.62;100.00;96561.72;5010282;28;105569;-76
2023/10/12 06:13:41;;;;;;;11.37;5.10;;;;;;;10.85;100.00;96571.31;5011991;28;101865;-76
2023/10/12 06:16:14;;;;;;;11.77;4.57;;;;;;;10.99;100.00;96568.03;5015093;28;101710;-76
2023/10/12 06:18:45;;;;;;;7.70;4.73;;;;;;;11.02;100.00;96566.75;5010851;28;102175;-76
2023/10/12 06:21:17;;;;;;;9.33;5.23;;;;;;;11.07;100.00;96570.25;5011891;28;102525;-76
2023/10/12 06:23:48;;;;;;;11.17;4.87;;;;;;;11.02;100.00;96577.38;5010098;28;104031;-76
2023/10/12 06:26:29;;;;;;;11.67;5.57;;;;;;;11.10;100.00;96579.59;5012051;28;101812;-76
2023/10/12 06:29:00;;;;;;;7.80;4.47;;;;;;;11.25;100.00;96587.75;5010790;28;105272;-76
2023/10/12 06:31:29;;;;;;;10.40;4.80;;;;;;;11.28;100.00;96590.72;5010386;28;104330;-76
2023/10/12 06:34:00;;;;;;;7.17;4.40;;;;;;;11.42;100.00;96585.81;5010600;28;101943;-76
2023/10/12 06:36:38;;;;;;;9.97;4.60;;;;;;;11.47;100.00;96586.69;5010567;28;105538;-76
2023/10/12 06:41:59;;;;;;;11.67;5.30;;;;;;;11.63;100.00;96591.13;5010395;28;104890;-76
2023/10/12 06:44:28;;;;;;;16.60;6.43;;;;;;;11.53;100.00;96595.50;5009949;28;104206;-76
2023/10/12 06:46:57;;;;;;;13.33;6.17;;;;;;;11.50;100.00;96598.69;5011755;28;102165;-76
2023/10/12 06:49:29;;;;;;;11.20;7.23;;;;;;;11.53;100.00;96609.66;5010187;28;104403;-76
2023/10/12 06:52:00;;;;;;;13.87;6.97;;;;;;;11.58;100.00;96600.91;5026427;28;105352;-76
2023/10/12 06:54:39;;;;;;;11.53;6.67;;;;;;;11.62;100.00;96608.16;5010308;28;101870;-76
2023/10/12 07:00:15;;;;;;;10.53;4.50;;;;;;;11.40;100.00;96625.22;5010500;28;102832;-76
2023/10/12 07:02:44;;;;;;;10.03;4.43;;;;;;;11.59;100.00;96623.84;5013512;28;101950;-76
2023/10/12 07:05:19;;;;;;;10.63;5.07;;;;;;;11.71;100.00;96630.63;5009494;28;105786;-76
2023/10/12 07:07:51;;;;;;;9.37;4.57;;;;;;;11.90;100.00;96623.91;5010161;28;101840;-76
2023/10/12 07:10:27;;;;;;;8.17;4.90;;;;;;;12.02;100.00;96627.22;5010077;28;105199;-76
2023/10/12 07:12:59;;;;;;;8.90;4.90;;;;;;;12.23;100.00;96625.50;5009048;28;107070;-76
2023/10/12 07:15:32;;;;;;;9.00;5.37;;;;;;;12.29;100.00;96624.50;5009391;28;102157;-76
2023/10/12 07:18:05;;;;;;;8.57;4.53;;;;;;;12.43;100.00;96623.00;5009993;28;103687;-76
2023/10/12 07:20:46;;;;;;;9.27;4.60;;;;;;;12.46;100.00;96625.97;5010363;28;102864;-76
2023/10/12 07:23:17;;;;;;;6.80;4.50;;;;;;;12.48;100.00;96628.38;5009730;28;102318;-76
2023/10/12 07:25:48;;;;;;;8.90;4.90;;;;;;;12.55;100.00;96628.97;5012379;28;103814;-76
2023/10/12 07:28:25;;;;;;;13.17;4.87;;;;;;;12.39;100.00;96635.25;5009755;28;101914;-76
2023/10/12 07:33:50;;;;;;;11.00;4.57;;;;;;;12.58;100.00;96649.78;5009162;28;105816;-76
2023/10/12 07:36:34;;;;;;;7.53;4.77;;;;;;;12.43;100.00;96655.03;5009495;28;101880;-76
2023/10/12 07:39:17;;;;;;;7.00;4.10;;;;;;;12.68;100.00;96655.19;5010713;28;104351;-76
2023/10/12 07:41:53;;;;;;;7.83;4.50;;;;;;;12.80;100.00;96645.94;5008820;28;105528;-76
2023/10/12 07:44:22;;;;;;;7.47;4.73;;;;;;;13.08;100.00;96644.78;5009593;28;102339;-76
2023/10/12 07:46:49;;;;;;;8.27;4.70;;;;;;;13.27;100.00;96645.94;5009401;28;103832;-76
2023/10/12 07:49:27;;;;;;;5.40;4.10;;;;;;;13.44;100.00;96638.53;5012325;28;105541;-76
2023/10/12 07:52:22;;;;;;;6.93;3.93;;;;;;;13.62;100.00;96648.75;5009407;28;105478;-76
2023/10/12 07:54:57;;;;;;;7.33;3.80;;;;;;;13.87;100.00;96635.44;5008466;28;105687;-76
2023/10/12 07:57:29;;;;;;;5.57;3.90;;;;;;;14.09;100.00;96634.16;5010758;28;101766;-76
2023/10/12 08:00:29;;;;;;;6.70;3.57;;;;;;;14.35;100.00;96629.63;5009292;28;105812;-76
2023/10/12 08:05:56;;;;;;;5.27;3.40;;;;;;;14.87;100.00;96635.50;5009396;28;102175;-76
2023/10/12 08:08:33;;;;;;;7.13;3.50;;;;;;;15.29;100.00;96635.88;5009094;28;103876;-76
2023/10/12 08:11:08;;;;;;;5.07;2.80;;;;;;;15.48;100.00;96627.00;5011716;28;105663;-76
2023/10/12 08:13:39;;;;;;;9.40;3.70;;;;;;;15.69;100.00;96623.13;5010027;28;104936;-76
2023/10/12 08:16:15;;;;;;;7.17;3.40;;;;;;;16.06;100.00;96619.94;5008071;28;104125;-77
2023/10/12 08:21:33;;;;;;;5.57;3.20;;;;;;;16.60;100.00;96612.56;5008244;28;103528;-76
2023/10/12 08:24:09;;;;;;;7.57;3.57;;;;;;;17.03;100.00;96606.22;5008277;28;105184;-79
2023/10/12 08:26:47;;;;;;;9.00;3.70;;;;;;;17.36;100.00;96603.44;5008988;28;101937;-79
2023/10/12 08:30:10;;;;;;;7.10;3.53;;;;;;;17.57;100.00;96612.06;5009026;28;105622;-79
2023/10/12 08:32:11;;;;;;;6.50;2.70;;;;;;;17.71;100.00;96607.59;5007769;28;104192;-79
2023/10/12 08:37:26;;;;;;;9.47;3.37;;;;;;;17.75;100.00;96598.66;5007035;28;105571;-79
2023/10/12 08:40:07;;;;;;;7.13;3.20;;;;;;;17.68;100.00;96603.59;5008780;28;102169;-79
2023/10/12 08:42:55;;;;;;;6.33;3.20;;;;;;;17.88;100.00;96599.81;5025413;28;105322;-79
2023/10/12 08:45:23;;;;;;;5.37;3.40;;;;;;;18.08;100.00;96599.50;5008024;28;105203;-79
2023/10/12 08:47:53;;;;;;;3.77;3.17;;;;;;;17.94;100.00;96598.66;5008629;28;101877;-79
2023/10/12 08:53:07;;;;;;;9.40;3.60;;;;;;;18.54;100.00;96605.81;5007916;28;105201;-79
2023/10/12 08:55:36;;;;;;;6.83;3.07;;;;;;;18.65;100.00;96608.00;5008654;28;101957;-79
2023/10/12 08:58:15;;;;;;;7.00;3.13;;;;;;;18.54;100.00;96601.19;5011288;28;105634;-79
2023/10/12 09:00:44;;;;;;;7.60;3.17;;;;;;;18.82;100.00;96599.38;5010101;28;101997;-79
2023/10/12 09:03:24;;;;;;;7.43;3.60;;;;;;;19.00;100.00;96603.91;5012077;28;105357;-79
2023/10/12 09:05:52;;;;;;;7.77;3.37;;;;;;;19.32;100.00;96599.25;5011637;28;105873;-79
2023/10/12 09:08:39;;;;;;;7.43;3.13;;;;;;;19.26;100.00;96596.97;5011843;28;101917;-79
2023/10/12 09:11:14;;;;;;;7.07;3.00;;;;;;;19.58;100.00;96594.13;5012037;28;105251;-79
2023/10/12 09:13:45;;;;;;;7.10;2.70;;;;;;;19.69;100.00;96595.53;5012628;28;102817;-79
2023/10/12 09:16:15;;;;;;;6.93;2.90;;;;;;;19.78;100.00;96599.13;5011283;28;101924;-79
2023/10/12 09:18:44;;;;;;;7.23;2.97;;;;;;;19.91;100.00;96604.47;5012893;28;102580;-79
2023/10/12 09:21:23;;;;;;;6.67;2.90;;;;;;;20.18;100.00;96603.63;5014320;28;105111;-79
2023/10/12 09:23:58;;;;;;;8.00;3.00;;;;;;;20.11;100.00;96600.56;5011662;28;105398;-79
2023/10/12 09:26:37;;;;;;;7.53;2.83;;;;;;;20.06;100.00;96600.63;5011096;28;105729;-79
2023/10/12 09:34:47;;;;;;;6.20;2.77;;;;;;;20.54;100.00;96588.94;5010871;28;105535;-79
2023/10/12 09:37:17;;;;;;;8.93;3.10;;;;;;;20.85;100.00;96572.75;5011753;28;102290;-79
2023/10/12 09:39:48;;;;;;;6.00;2.90;;;;;;;21.08;100.00;96566.22;5011606;28;105422;-79
2023/10/12 09:42:30;;;;;;;7.60;3.57;;;;;;;20.97;100.00;96564.88;5010833;28;104323;-79
2023/10/12 09:45:04;;;;;;;6.77;2.80;;;;;;;21.31;100.00;96567.75;5014850;28;101898;-79
2023/10/12 09:47:50;;;;;;;8.40;2.97;;;;;;;21.22;100.00;96575.81;5011046;28;105137;-79
2023/10/12 09:50:27;;;;;;;5.87;2.57;;;;;;;21.73;100.00;96565.16;5011277;28;101831;-79
2023/10/12 09:53:12;;;;;;;8.87;3.00;;;;;;;21.66;100.00;96570.22;5011192;28;105222;-79
2023/10/12 09:55:53;;;;;;;8.77;2.80;;;;;;;21.81;100.00;96569.00;5010704;28;105071;-79
2023/10/12 09:58:23;;;;;;;6.67;2.83;;;;;;;22.12;100.00;96566.94;5011214;28;101902;-79
2023/10/12 10:01:01;;;;;;;5.23;2.90;;;;;;;22.26;100.00;96567.56;5010958;28;105667;-79
2023/10/12 10:03:37;;;;;;;4.37;2.60;;;;;;;22.08;100.00;96572.19;5010714;28;105668;-79
2023/10/12 10:06:19;;;;;;;6.23;3.10;;;;;;;22.33;100.00;96565.16;5010950;28;101882;-79
2023/10/12 10:09:02;;;;;;;9.37;2.80;;;;;;;22.56;100.00;96561.97;5015415;28;102615;-79
2023/10/12 10:11:30;;;;;;;6.07;2.90;;;;;;;22.59;95.27;96547.78;5010959;28;101888;-79
2023/10/12 10:13:58;;;;;;;7.10;2.70;;;;;;;22.71;100.00;96552.53;5009811;28;105559;-79
2023/10/12 10:16:42;;;;;;;5.80;3.13;;;;;;;23.12;98.52;96547.28;5010092;28;105879;-79
2023/10/12 10:19:15;;;;;;;6.30;2.77;;;;;;;23.27;90.72;96544.84;5010923;28;102020;-79
2023/10/12 10:21:49;;;;;;;7.37;3.37;;;;;;;23.15;81.39;96541.22;5010612;28;105189;-79
2023/10/12 10:24:23;;;;;;;5.03;2.63;;;;;;;23.63;94.55;96538.91;5010218;28;105026;-79
2023/10/12 10:26:57;;;;;;;5.37;2.87;;;;;;;23.85;89.08;96533.97;5010873;28;102081;-79
2023/10/12 10:29:45;;;;;;;6.30;2.70;;;;;;;23.88;84.61;96535.22;5013792;28;104947;-79
2023/10/12 10:32:16;;;;;;;6.23;2.97;;;;;;;23.80;91.95;96530.63;5010668;28;101914;-79
2023/10/12 10:34:44;;;;;;;4.63;2.60;;;;;;;23.63;83.15;96525.31;5010476;28;105231;-79
2023/10/12 10:37:14;;;;;;;9.10;2.77;;;;;;;23.52;73.60;96524.13;5010185;28;104112;-79
2023/10/12 10:39:43;;;;;;;5.17;2.80;;;;;;;23.81;77.55;96524.88;5010569;28;101922;-79
2023/10/12 10:42:10;;;;;;;5.60;2.93;;;;;;;23.75;78.48;96528.91;5010541;28;105110;-79
2023/10/12 10:44:41;;;;;;;4.10;2.80;;;;;;;23.82;77.58;96514.81;5009824;28;105975;-79
2023/10/12 10:47:15;;;;;;;7.30;2.87;;;;;;;24.12;76.11;96519.06;5010632;28;101840;-79
2023/10/12 10:49:45;;;;;;;6.30;2.80;;;;;;;24.11;79.96;96510.13;5010451;28;105633;-79
2023/10/12 10:52:20;;;;;;;5.17;2.77;;;;;;;24.41;81.23;96508.88;5013253;28;104933;-79
2023/10/12 10:54:56;;;;;;;6.33;2.73;;;;;;;24.55;89.79;96516.72;5010591;28;105143;-79
2023/10/12 10:57:31;;;;;;;5.67;3.00;;;;;;;24.41;80.31;96508.09;5009637;28;105935;-79
2023/10/12 11:00:00;;;;;;;5.50;2.40;;;;;;;24.64;80.64;96509.31;5010289;28;101756;-79
2023/10/12 11:02:28;;;;;;;4.83;3.00;;;;;;;24.47;84.34;96506.75;5010407;28;105518;-79
2023/10/12 11:04:59;;;;;;;5.20;2.63;;;;;;;24.91;82.93;96501.31;5009265;28;105777;-79
2023/10/12 11:07:27;;;;;;;5.50;2.97;;;;;;;24.80;78.88;96502.09;5027082;28;101942;-79
2023/10/12 11:10:09;;;;;;;5.10;2.40;;;;;;;24.75;80.26;96491.44;5009897;28;103749;-79
2023/10/12 11:12:38;;;;;;;6.23;2.60;;;;;;;24.67;87.00;96495.03;5009481;28;105782;-79
2023/10/12 11:15:09;;;;;;;7.97;2.93;;;;;;;24.86;84.61;96492.59;5013046;28;101897;-79
2023/10/12 11:17:49;;;;;;;6.87;2.60;;;;;;;25.23;77.01;96491.47;5009217;28;105277;-79
2023/10/12 11:20:38;;;;;;;7.03;3.07;;;;;;;25.15;71.85;96485.00;5009814;28;101867;-79
2023/10/12 11:23:08;;;;;;;6.30;2.83;;;;;;;25.35;77.52;96488.78;5009808;28;105013;-79
2023/10/12 11:25:39;;;;;;;4.63;2.50;;;;;;;25.34;69.25;96482.53;5008995;28;103139;-79
2023/10/12 11:28:23;;;;;;;4.50;2.77;;;;;;;25.14;64.98;96488.88;5009748;28;102229;-79
2023/10/12 11:30:51;;;;;;;4.87;2.50;;;;;;;25.40;65.11;96483.09;5009976;28;105310;-79
2023/10/12 11:33:28;;;;;;;9.27;2.73;;;;;;;25.16;65.50;96475.69;5009216;28;105208;-79
2023/10/12 11:36:00;;;;;;;5.40;3.00;;;;;;;25.52;61.68;96472.19;5009663;28;101893;-79
2023/10/12 11:38:29;;;;;;;4.20;2.40;;;;;;;26.01;59.56;96465.50;5012666;28;105198;-79
2023/10/12 11:40:56;;;;;;;6.73;2.77;;;;;;;26.47;61.95;96459.34;5009493;28;102292;-79
2023/10/12 11:43:29;;;;;;;6.73;2.90;;;;;;;26.34;50.62;96449.66;5009525;28;105776;-78
2023/10/12 11:46:01;;;;;;;8.10;2.73;;;;;;;26.73;47.87;96448.75;5008951;28;105468;-78
2023/10/12 11:48:31;;;;;;;6.30;2.90;;;;;;;26.67;47.51;96459.16;5009535;28;102207;-78
2023/10/12 11:50:59;;;;;;;6.23;3.07;;;;;;;26.58;44.97;96447.63;5010746;28;102882;-81
2023/10/12 11:53:28;;;;;;;3.80;2.47;;;;;;;26.21;46.63;96440.75;5010162;28;102924;-82
2023/10/12 11:56:07;;;;;;;7.17;2.73;;;;;;;26.04;46.05;96445.72;5009226;28;102008;-82
2023/10/12 11:58:35;;;;;;;4.60;2.50;;;;;;;25.53;46.51;96446.53;5009290;28;105581;-82
2023/10/12 12:01:02;;;;;;;5.90;2.43;;;;;;;26.49;48.79;96446.19;5012119;28;105518;-83
2023/10/12 12:03:39;;;;;;;4.87;2.57;;;;;;;26.63;44.40;96446.56;5009097;28;105382;-83
2023/10/12 12:06:11;;;;;;;5.03;2.43;;;;;;;26.79;44.93;96450.09;5008820;28;105083;-83
2023/10/12 12:08:40;;;;;;;6.17;2.43;;;;;;;27.24;46.43;96445.00;5009337;28;101913;-83
2023/10/12 12:11:09;;;;;;;6.20;2.80;;;;;;;27.33;43.42;96446.38;5009278;28;102611;-83
2023/10/12 12:13:42;;;;;;;6.80;2.90;;;;;;;27.29;45.84;96442.00;5008437;28;105282;-83
2023/10/12 12:16:10;;;;;;;7.60;2.80;;;;;;;27.36;44.89;96442.16;5008794;28;103157;-83
2023/10/12 12:18:38;;;;;;;4.63;2.63;;;;;;;26.71;44.61;96431.97;5009243;28;105007;-83
2023/10/12 12:21:14;;;;;;;5.83;2.67;;;;;;;26.67;46.20;96442.00;5009522;28;102988;-82
2023/10/12 12:23:41;;;;;;;5.47;3.07;;;;;;;26.79;49.10;96431.78;5012493;28;101930;-82
2023/10/12 12:26:09;;;;;;;6.87;2.60;;;;;;;26.35;47.20;96430.22;5008498;28;105195;-82
2023/10/12 12:28:44;;;;;;;8.80;2.60;;;;;;;26.36;48.95;96423.63;5010099;28;101849;-83
2023/10/12 12:31:13;;;;;;;6.90;3.30;;;;;;;26.25;48.04;96429.94;5008974;28;104827;-82
2023/10/12 12:33:44;;;;;;;6.57;2.60;;;;;;;26.42;51.10;96419.50;5008329;28;105221;-82
2023/10/12 12:36:12;;;;;;;6.80;2.60;;;;;;;26.51;49.18;96419.34;5007923;28;101867;-79